createdAt,value
2023-03-13T00:01:13.772Z,10.60
2023-03-13T00:03:41.696Z,10.60
2023-03-13T00:06:09.878Z,10.60
2023-03-13T00:08:38.390Z,10.60
2023-03-13T00:11:11.909Z,10.60
2023-03-13T00:13:39.923Z,10.60
2023-03-13T00:16:12.552Z,10.70
2023-03-13T00:18:40.847Z,10.70
2023-03-13T00:21:10.592Z,10.70
2023-03-13T00:23:39.560Z,10.60
2023-03-13T00:26:11.730Z,10.50
2023-03-13T00:28:41.267Z,10.50
2023-03-13T00:31:10.364Z,10.60
2023-03-13T00:33:39.866Z,10.90
2023-03-13T00:36:09.937Z,11.20
2023-03-13T00:38:38.146Z,11.50
2023-03-13T00:41:11.946Z,11.70
2023-03-13T00:43:41.434Z,11.90
2023-03-13T00:46:10.176Z,12.10
2023-03-13T00:48:38.583Z,11.80
2023-03-13T00:51:08.200Z,11.50
2023-03-13T00:53:36.921Z,11.20
2023-03-13T00:56:07.455Z,11.10
2023-03-13T00:58:38.232Z,11.00
2023-03-13T01:01:10.799Z,11.00
2023-03-13T01:03:39.829Z,10.90
2023-03-13T01:06:11.903Z,10.90
2023-03-13T01:08:39.855Z,10.80
2023-03-13T01:11:09.559Z,10.80
2023-03-13T01:13:39.638Z,10.80
2023-03-13T01:16:09.183Z,10.80
2023-03-13T01:18:40.320Z,10.80
2023-03-13T01:21:08.932Z,10.80
2023-03-13T01:23:37.112Z,10.80
2023-03-13T01:26:07.476Z,10.80
2023-03-13T01:28:36.834Z,10.80
2023-03-13T01:31:14.454Z,10.70
2023-03-13T01:33:44.867Z,10.70
2023-03-13T01:36:13.152Z,10.70
2023-03-13T01:38:41.766Z,10.70
2023-03-13T01:41:13.382Z,10.60
2023-03-13T01:43:43.975Z,10.50
2023-03-13T01:46:18.943Z,10.50
2023-03-13T01:48:52.238Z,10.40
2023-03-13T01:51:24.713Z,10.40
2023-03-13T01:53:58.434Z,10.50
2023-03-13T01:56:33.382Z,10.30
2023-03-13T01:59:01.785Z,10.30
2023-03-13T02:01:31.559Z,10.30
2023-03-13T02:03:59.769Z,10.20
2023-03-13T02:06:31.174Z,10.30
2023-03-13T02:09:02.403Z,10.20
2023-03-13T02:11:38.262Z,10.40
2023-03-13T02:14:06.124Z,10.50
2023-03-13T02:16:36.660Z,10.60
2023-03-13T02:19:12.741Z,10.70
2023-03-13T02:21:44.662Z,10.70
2023-03-13T02:24:19.393Z,10.80
2023-03-13T02:26:48.726Z,10.90
2023-03-13T02:29:19.090Z,10.80
2023-03-13T02:31:48.983Z,11.00
2023-03-13T02:34:21.694Z,10.90
2023-03-13T02:36:50.981Z,11.00
2023-03-13T02:39:21.381Z,11.10
2023-03-13T02:41:52.575Z,11.20
2023-03-13T02:44:20.466Z,11.10
2023-03-13T02:46:52.226Z,11.10
2023-03-13T02:49:25.401Z,11.10
2023-03-13T02:51:55.219Z,11.10
2023-03-13T02:54:25.919Z,11.20
2023-03-13T02:56:58.540Z,11.20
2023-03-13T02:59:27.167Z,11.10
2023-03-13T03:01:55.111Z,11.10
2023-03-13T03:04:24.885Z,11.00
2023-03-13T03:06:53.372Z,10.90
2023-03-13T03:09:22.119Z,11.00
2023-03-13T03:11:50.109Z,11.00
2023-03-13T03:14:19.321Z,11.00
2023-03-13T03:16:47.708Z,11.10
2023-03-13T03:19:15.805Z,11.20
2023-03-13T03:21:43.920Z,11.20
2023-03-13T03:24:12.117Z,11.30
2023-03-13T03:26:39.944Z,11.20
2023-03-13T03:29:08.699Z,11.20
2023-03-13T03:31:38.020Z,11.10
2023-03-13T03:34:06.084Z,11.10
2023-03-13T03:36:33.972Z,11.00
2023-03-13T03:39:01.842Z,10.90
2023-03-13T03:41:29.685Z,10.80
2023-03-13T03:43:57.729Z,10.70
2023-03-13T03:46:25.662Z,10.70
2023-03-13T03:48:54.896Z,10.60
2023-03-13T03:51:22.981Z,10.60
2023-03-13T03:53:50.807Z,10.50
2023-03-13T03:56:18.778Z,10.40
2023-03-13T03:58:46.755Z,10.40
2023-03-13T04:01:14.624Z,10.40
2023-03-13T04:03:42.480Z,10.40
2023-03-13T04:06:11.752Z,10.40
2023-03-13T04:08:39.617Z,10.30
2023-03-13T04:11:07.475Z,10.30
2023-03-13T04:13:35.453Z,10.30
2023-03-13T04:16:08.230Z,10.40
2023-03-13T04:18:36.171Z,10.30
2023-03-13T04:21:05.602Z,10.30
2023-03-13T04:23:34.832Z,10.30
2023-03-13T04:26:02.761Z,10.40
2023-03-13T04:28:30.685Z,10.40
2023-03-13T04:30:58.542Z,10.30
2023-03-13T04:33:26.514Z,10.40
2023-03-13T04:35:54.395Z,10.30
2023-03-13T04:38:22.388Z,10.30
2023-03-13T04:40:51.554Z,10.30
2023-03-13T04:43:19.370Z,10.40
2023-03-13T04:45:47.568Z,10.40
2023-03-13T04:48:15.619Z,10.50
2023-03-13T04:50:43.506Z,10.50
2023-03-13T04:53:11.328Z,10.60
2023-03-13T04:55:39.187Z,10.60
2023-03-13T04:58:08.350Z,10.60
2023-03-13T05:00:36.207Z,10.70
2023-03-13T05:03:04.578Z,10.70
2023-03-13T05:05:34.548Z,10.70
2023-03-13T05:08:02.585Z,10.70
2023-03-13T05:10:30.473Z,10.70
2023-03-13T05:12:58.277Z,10.70
2023-03-13T05:15:27.505Z,10.80
2023-03-13T05:17:55.441Z,10.90
2023-03-13T05:20:23.275Z,11.00
2023-03-13T05:22:51.180Z,11.10
2023-03-13T05:25:19.135Z,11.30
2023-03-13T05:27:47.081Z,11.40
2023-03-13T05:30:15.072Z,11.50
2023-03-13T05:32:44.298Z,11.60
2023-03-13T05:35:12.242Z,11.70
2023-03-13T05:37:41.405Z,11.80
2023-03-13T05:40:11.063Z,11.90
2023-03-13T05:42:38.990Z,12.00
2023-03-13T05:45:09.182Z,12.10
2023-03-13T05:47:38.551Z,12.10
2023-03-13T05:50:08.996Z,12.20
2023-03-13T05:52:36.799Z,12.30
2023-03-13T05:55:04.875Z,12.40
2023-03-13T05:57:32.774Z,12.40
2023-03-13T06:00:00.703Z,12.50
2023-03-13T06:02:28.647Z,12.50
2023-03-13T06:04:56.673Z,12.50
2023-03-13T06:07:26.067Z,12.50
2023-03-13T06:09:53.993Z,12.60
2023-03-13T06:12:21.848Z,12.60
2023-03-13T06:14:49.674Z,12.70
2023-03-13T06:17:17.571Z,12.80
2023-03-13T06:19:45.468Z,12.70
2023-03-13T06:22:13.293Z,12.80
2023-03-13T06:24:44.612Z,12.80
2023-03-13T06:27:12.736Z,12.80
2023-03-13T06:29:40.587Z,12.80
2023-03-13T06:32:08.991Z,12.80
2023-03-13T06:34:37.559Z,12.80
2023-03-13T06:37:05.581Z,12.90
2023-03-13T06:39:33.981Z,12.90
2023-03-13T06:42:03.480Z,12.90
2023-03-13T06:44:31.355Z,13.00
2023-03-13T06:46:59.348Z,13.10
2023-03-13T06:49:27.192Z,13.00
2023-03-13T06:51:55.094Z,13.00
2023-03-13T06:54:23.034Z,13.00
2023-03-13T06:56:51.553Z,13.10
2023-03-13T06:59:20.820Z,13.10
2023-03-13T07:01:48.639Z,13.10
2023-03-13T07:04:16.833Z,13.20
2023-03-13T07:06:44.719Z,13.20
2023-03-13T07:09:12.606Z,13.10
2023-03-13T07:11:40.558Z,13.20
2023-03-13T07:14:16.565Z,13.30
2023-03-13T07:16:47.176Z,13.30
2023-03-13T07:19:15.429Z,13.30
2023-03-13T07:21:44.103Z,13.30
2023-03-13T07:24:12.307Z,13.40
2023-03-13T07:26:42.560Z,13.50
2023-03-13T07:29:14.202Z,13.60
2023-03-13T07:31:42.054Z,13.60
2023-03-13T07:34:11.292Z,13.60
2023-03-13T07:36:40.487Z,13.70
2023-03-13T07:39:09.085Z,13.70
2023-03-13T07:41:38.901Z,13.80
2023-03-13T07:44:07.153Z,13.90
2023-03-13T07:46:35.073Z,13.90
2023-03-13T07:49:02.978Z,14.00
2023-03-13T07:51:43.028Z,14.00
2023-03-13T07:54:12.128Z,14.00
2023-03-13T07:56:40.593Z,14.00
2023-03-13T07:59:09.401Z,14.00
2023-03-13T08:01:37.391Z,14.00
2023-03-13T08:04:05.632Z,14.10
2023-03-13T08:06:36.758Z,14.10
2023-03-13T08:09:05.472Z,14.10
2023-03-13T08:11:33.656Z,14.10
2023-03-13T08:14:01.536Z,14.20
2023-03-13T08:16:31.054Z,14.20
2023-03-13T08:18:59.940Z,14.20
2023-03-13T08:21:29.483Z,14.30
2023-03-13T08:24:01.196Z,14.30
2023-03-13T08:26:30.576Z,14.30
2023-03-13T08:29:00.110Z,14.20
2023-03-13T08:31:29.768Z,14.20
2023-03-13T08:33:58.134Z,14.30
2023-03-13T08:36:27.689Z,14.30
2023-03-13T08:38:56.917Z,14.40
2023-03-13T08:41:29.581Z,14.40
2023-03-13T08:43:58.159Z,14.30
2023-03-13T08:46:26.168Z,14.30
2023-03-13T08:48:55.501Z,14.40
2023-03-13T08:51:25.226Z,14.40
2023-03-13T08:53:53.798Z,14.30
2023-03-13T08:56:23.181Z,14.30
2023-03-13T08:58:53.343Z,14.30
2023-03-13T09:01:22.513Z,14.30
2023-03-13T09:03:50.742Z,14.30
2023-03-13T09:06:18.816Z,14.40
2023-03-13T09:08:46.763Z,14.40
2023-03-13T09:11:16.768Z,14.40
2023-03-13T09:13:46.089Z,14.40
2023-03-13T09:16:17.458Z,14.50
2023-03-13T09:18:45.989Z,14.60
2023-03-13T09:21:16.597Z,14.70
2023-03-13T09:23:44.677Z,14.60
2023-03-13T09:26:13.949Z,14.70
2023-03-13T09:28:42.250Z,14.60
2023-03-13T09:31:11.715Z,14.50
2023-03-13T09:33:41.218Z,14.50
2023-03-13T09:36:10.122Z,14.50
2023-03-13T09:38:38.687Z,14.50
2023-03-13T09:41:27.056Z,14.50
2023-03-13T09:44:01.600Z,14.50
2023-03-13T09:46:36.203Z,14.60
2023-03-13T09:49:11.307Z,14.60
2023-03-13T09:51:42.905Z,14.70
2023-03-13T09:54:19.600Z,14.80
2023-03-13T09:56:53.425Z,14.80
2023-03-13T09:59:28.366Z,14.90
2023-03-13T10:01:58.220Z,15.00
2023-03-13T10:04:34.576Z,15.30
2023-03-13T10:07:04.694Z,15.40
2023-03-13T10:09:34.621Z,15.50
2023-03-13T10:12:09.403Z,15.50
2023-03-13T10:14:44.407Z,15.50
2023-03-13T10:17:22.069Z,15.50
2023-03-13T10:19:58.702Z,15.40
2023-03-13T10:22:30.096Z,15.40
2023-03-13T10:25:01.270Z,15.40
2023-03-13T10:27:30.312Z,15.40
2023-03-13T10:29:58.176Z,15.50
2023-03-13T10:32:26.094Z,15.60
2023-03-13T10:35:00.401Z,15.70
2023-03-13T10:37:30.581Z,15.80
2023-03-13T10:40:14.664Z,15.90
2023-03-13T10:42:46.005Z,16.00
2023-03-13T10:45:17.438Z,16.10
2023-03-13T10:47:45.611Z,16.20
2023-03-13T10:50:22.887Z,16.30
2023-03-13T10:52:52.481Z,16.30
2023-03-13T10:55:22.099Z,16.30
2023-03-13T10:57:59.788Z,16.30
2023-03-13T11:00:34.333Z,16.40
2023-03-13T11:03:03.672Z,16.40
2023-03-13T11:05:38.298Z,16.30
2023-03-13T11:08:20.826Z,16.50
2023-03-13T11:10:58.080Z,16.70
2023-03-13T11:13:38.451Z,17.00
2023-03-13T11:16:18.533Z,17.20
2023-03-13T11:19:09.214Z,17.30
2023-03-13T11:21:45.703Z,17.50
2023-03-13T11:24:20.722Z,17.60
2023-03-13T11:27:04.222Z,17.70
2023-03-13T11:29:40.579Z,17.90
2023-03-13T11:32:21.080Z,18.10
2023-03-13T11:34:53.631Z,18.40
2023-03-13T11:37:24.569Z,18.50
2023-03-13T11:40:01.084Z,18.70
2023-03-13T11:42:41.656Z,18.70
2023-03-13T11:45:18.962Z,18.60
2023-03-13T11:47:56.744Z,18.60
2023-03-13T11:50:36.841Z,18.40
2023-03-13T11:53:27.684Z,18.30
2023-03-13T11:56:06.036Z,18.20
2023-03-13T11:58:44.091Z,18.20
2023-03-13T12:01:15.061Z,18.10
2023-03-13T12:03:52.606Z,18.20
2023-03-13T12:06:28.528Z,18.30
2023-03-13T12:09:04.240Z,18.50
2023-03-13T12:11:37.947Z,18.50
2023-03-13T12:14:11.046Z,18.60
2023-03-13T12:16:44.326Z,18.70
2023-03-13T12:19:16.064Z,18.70
2023-03-13T12:21:49.770Z,18.80
2023-03-13T12:24:27.851Z,18.70
2023-03-13T12:27:00.515Z,18.70
2023-03-13T12:29:45.905Z,18.70
2023-03-13T12:32:19.280Z,18.70
2023-03-13T12:34:56.536Z,18.70
2023-03-13T12:37:31.907Z,18.80
2023-03-13T12:40:10.430Z,18.80
2023-03-13T12:42:46.493Z,18.70
2023-03-13T12:45:18.641Z,18.70
2023-03-13T12:48:15.044Z,18.70
2023-03-13T12:50:58.002Z,18.70
2023-03-13T12:53:47.531Z,18.80
2023-03-13T12:56:44.329Z,18.80
2023-03-13T12:59:16.478Z,18.80
2023-03-13T13:01:47.252Z,18.80
2023-03-13T13:04:18.593Z,18.80
2023-03-13T13:06:59.388Z,18.80
2023-03-13T13:09:31.365Z,18.90
2023-03-13T13:12:04.184Z,18.80
2023-03-13T13:14:58.054Z,18.90
2023-03-13T13:18:04.702Z,18.90
2023-03-13T13:20:39.212Z,18.80
2023-03-13T13:23:34.988Z,18.80
2023-03-13T13:26:49.274Z,18.90
2023-03-13T13:29:57.079Z,19.00
2023-03-13T13:32:46.590Z,19.10
2023-03-13T13:35:26.383Z,19.10
2023-03-13T13:38:14.751Z,19.10
2023-03-13T13:41:00.789Z,19.10
2023-03-13T13:43:32.814Z,19.20
2023-03-13T13:46:09.066Z,19.20
2023-03-13T13:48:39.817Z,19.30
2023-03-13T13:51:25.416Z,19.40
2023-03-13T13:54:01.110Z,19.50
2023-03-13T13:56:48.083Z,19.60
2023-03-13T13:59:36.968Z,19.70
2023-03-13T14:02:24.113Z,19.70
2023-03-13T14:05:00.875Z,19.80
2023-03-13T14:07:43.746Z,20.00
2023-03-13T14:10:32.863Z,20.20
2023-03-13T14:13:03.756Z,20.40
2023-03-13T14:15:32.942Z,20.40
2023-03-13T14:18:09.837Z,20.50
2023-03-13T14:20:39.388Z,20.60
2023-03-13T14:23:09.482Z,20.60
2023-03-13T14:25:46.820Z,20.60
2023-03-13T14:28:21.457Z,20.70
2023-03-13T14:30:50.949Z,20.60
2023-03-13T14:33:19.806Z,20.60
2023-03-13T14:35:49.017Z,20.80
2023-03-13T14:38:19.677Z,20.90
2023-03-13T14:40:47.866Z,21.10
2023-03-13T14:43:23.156Z,21.20
2023-03-13T14:45:51.867Z,21.20
2023-03-13T14:48:23.706Z,21.20
2023-03-13T14:51:05.449Z,21.20
2023-03-13T14:53:41.915Z,21.20
2023-03-13T14:56:18.874Z,21.20
2023-03-13T14:58:49.126Z,21.20
2023-03-13T15:01:27.227Z,21.20
2023-03-13T15:03:55.214Z,21.30
2023-03-13T15:06:24.800Z,21.30
2023-03-13T15:09:20.716Z,21.30
2023-03-13T15:11:58.105Z,21.30
2023-03-13T15:14:38.102Z,21.40
2023-03-13T15:17:13.972Z,21.30
2023-03-13T15:19:42.092Z,21.10
2023-03-13T15:22:15.283Z,21.00
2023-03-13T15:24:48.450Z,20.90
2023-03-13T15:27:23.376Z,20.90
2023-03-13T15:29:52.952Z,20.90
2023-03-13T15:32:27.750Z,20.90
2023-03-13T15:34:58.425Z,20.80
2023-03-13T15:37:27.064Z,20.80
2023-03-13T15:39:55.929Z,20.80
2023-03-13T15:42:24.370Z,20.70
2023-03-13T15:44:53.937Z,19.70
2023-03-13T15:47:23.078Z,18.80
2023-03-13T15:49:51.031Z,18.30
2023-03-13T15:52:22.795Z,17.80
2023-03-13T15:54:51.930Z,17.40
2023-03-13T15:57:23.396Z,17.10
2023-03-13T15:59:51.687Z,16.90
2023-03-13T16:02:23.172Z,16.80
2023-03-13T16:04:52.259Z,16.60
2023-03-13T16:07:21.845Z,16.50
2023-03-13T16:09:50.072Z,16.50
2023-03-13T16:12:17.953Z,16.30
2023-03-13T16:14:45.860Z,16.00
2023-03-13T16:17:16.173Z,15.50
2023-03-13T16:19:45.900Z,15.20
2023-03-13T16:22:14.294Z,14.90
2023-03-13T16:24:42.494Z,14.70
2023-03-13T16:27:15.760Z,14.60
2023-03-13T16:29:43.702Z,14.50
2023-03-13T16:32:13.918Z,14.40
2023-03-13T16:34:43.052Z,14.40
2023-03-13T16:37:17.967Z,14.30
2023-03-13T16:39:47.002Z,14.20
2023-03-13T16:42:15.294Z,14.20
2023-03-13T16:44:43.226Z,14.10
2023-03-13T16:47:21.488Z,14.10
2023-03-13T16:49:50.552Z,14.10
2023-03-13T16:52:20.066Z,14.00
2023-03-13T16:54:48.139Z,14.00
2023-03-13T16:57:18.690Z,14.00
2023-03-13T16:59:46.710Z,13.90
2023-03-13T17:02:16.742Z,13.90
2023-03-13T17:04:45.455Z,13.80
2023-03-13T17:07:20.850Z,13.90
2023-03-13T17:09:48.748Z,13.80
2023-03-13T17:12:16.862Z,13.70
2023-03-13T17:14:44.768Z,13.70
2023-03-13T17:17:15.694Z,13.60
2023-03-13T17:19:43.597Z,13.50
2023-03-13T17:22:14.122Z,13.50
2023-03-13T17:24:44.071Z,13.50
2023-03-13T17:27:14.549Z,13.60
2023-03-13T17:29:42.661Z,13.60
2023-03-13T17:32:11.676Z,13.60
2023-03-13T17:34:40.004Z,13.70
2023-03-13T17:37:15.762Z,13.70
2023-03-13T17:39:45.578Z,13.60
2023-03-13T17:42:13.442Z,13.60
2023-03-13T17:44:41.545Z,13.70
2023-03-13T17:47:16.804Z,13.70
2023-03-13T17:49:45.442Z,13.70
2023-03-13T17:52:15.093Z,13.70
2023-03-13T17:54:45.636Z,13.70
2023-03-13T17:57:19.578Z,13.70
2023-03-13T17:59:49.291Z,13.70
2023-03-13T18:02:19.250Z,13.70
2023-03-13T18:04:48.915Z,13.60
2023-03-13T18:07:27.094Z,13.50
2023-03-13T18:09:56.339Z,13.50
2023-03-13T18:12:24.178Z,13.40
2023-03-13T18:14:52.039Z,13.40
2023-03-13T18:17:22.408Z,13.40
2023-03-13T18:19:51.613Z,13.40
2023-03-13T18:22:22.458Z,13.40
2023-03-13T18:24:50.248Z,13.30
2023-03-13T18:27:21.141Z,13.30
2023-03-13T18:29:50.136Z,13.20
2023-03-13T18:32:19.673Z,13.20
2023-03-13T18:34:47.561Z,13.10
2023-03-13T18:37:21.682Z,13.10
2023-03-13T18:39:55.667Z,13.20
2023-03-13T18:42:25.732Z,13.10
2023-03-13T18:44:54.144Z,13.10
2023-03-13T18:47:23.572Z,13.10
2023-03-13T18:49:51.468Z,13.10
2023-03-13T18:52:19.485Z,13.10
2023-03-13T18:54:47.558Z,13.10
2023-03-13T18:57:17.032Z,13.10
2023-03-13T18:59:46.935Z,13.10
2023-03-13T19:02:15.980Z,13.10
2023-03-13T19:04:44.633Z,13.10
2023-03-13T19:07:15.261Z,13.10
2023-03-13T19:09:45.358Z,13.00
2023-03-13T19:12:15.437Z,12.90
2023-03-13T19:14:43.387Z,12.80
2023-03-13T19:17:20.158Z,12.70
2023-03-13T19:19:48.077Z,12.60
2023-03-13T19:22:16.001Z,12.50
2023-03-13T19:24:43.810Z,12.30
2023-03-13T19:27:15.189Z,12.30
2023-03-13T19:29:43.035Z,12.30
2023-03-13T19:32:15.351Z,12.30
2023-03-13T19:34:43.318Z,12.30
2023-03-13T19:37:14.083Z,12.20
2023-03-13T19:39:42.026Z,12.20
2023-03-13T19:42:10.128Z,12.20
2023-03-13T19:44:40.169Z,12.20
2023-03-13T19:47:08.137Z,12.10
2023-03-13T19:49:37.341Z,12.10
2023-03-13T19:52:06.575Z,12.00
2023-03-13T19:54:34.515Z,12.00
2023-03-13T19:57:02.343Z,12.00
2023-03-13T19:59:31.815Z,11.90
2023-03-13T20:02:01.164Z,11.90
2023-03-13T20:04:29.038Z,11.80
2023-03-13T20:06:58.201Z,11.80
2023-03-13T20:09:26.228Z,11.80
2023-03-13T20:11:54.169Z,11.70
2023-03-13T20:14:21.987Z,11.70
2023-03-13T20:16:49.854Z,11.80
2023-03-13T20:19:17.803Z,11.90
2023-03-13T20:21:46.636Z,11.80
2023-03-13T20:24:16.279Z,11.70
2023-03-13T20:26:44.154Z,11.50
2023-03-13T20:29:11.974Z,11.40
2023-03-13T20:31:39.909Z,11.40
2023-03-13T20:34:07.999Z,11.30
2023-03-13T20:36:35.814Z,11.30
2023-03-13T20:39:05.402Z,11.20
2023-03-13T20:41:34.666Z,11.20
2023-03-13T20:44:02.529Z,11.20
2023-03-13T20:46:30.367Z,11.20
2023-03-13T20:48:59.068Z,11.30
2023-03-13T20:51:27.750Z,11.40
2023-03-13T20:53:55.674Z,11.40
2023-03-13T20:56:23.593Z,11.40
2023-03-13T20:58:52.869Z,11.40
2023-03-13T21:01:22.355Z,11.40
2023-03-13T21:03:50.388Z,11.30
2023-03-13T21:06:19.499Z,11.30
2023-03-13T21:08:48.113Z,11.30
2023-03-13T21:11:17.516Z,11.30
2023-03-13T21:13:46.344Z,11.30
2023-03-13T21:16:16.814Z,11.20
2023-03-13T21:18:44.797Z,11.10
2023-03-13T21:21:17.126Z,11.00
2023-03-13T21:23:45.471Z,10.90
2023-03-13T21:26:14.571Z,11.00
2023-03-13T21:28:42.949Z,11.00
2023-03-13T21:31:12.730Z,11.10
2023-03-13T21:33:42.972Z,11.10
2023-03-13T21:36:12.513Z,11.10
2023-03-13T21:38:40.577Z,11.10
2023-03-13T21:41:09.876Z,11.10
2023-03-13T21:43:38.299Z,11.10
2023-03-13T21:46:06.728Z,11.10
2023-03-13T21:48:34.619Z,11.10
2023-03-13T21:51:03.846Z,11.10
2023-03-13T21:53:31.664Z,11.00
2023-03-13T21:55:59.582Z,11.00
2023-03-13T21:58:27.462Z,11.00
2023-03-13T22:00:55.949Z,11.00
2023-03-13T22:03:24.363Z,11.00
2023-03-13T22:05:52.189Z,11.00
2023-03-13T22:08:21.698Z,11.00
2023-03-13T22:10:50.573Z,11.00
2023-03-13T22:13:18.649Z,11.00
2023-03-13T22:15:47.108Z,11.00
2023-03-13T22:18:15.456Z,11.00
2023-03-13T22:20:43.873Z,11.00
2023-03-13T22:23:12.167Z,11.00
2023-03-13T22:25:42.867Z,11.10
2023-03-13T22:28:12.053Z,11.10
2023-03-13T22:30:40.907Z,11.10
2023-03-13T22:33:09.235Z,11.10
2023-03-13T22:35:38.314Z,11.10
2023-03-13T22:38:06.907Z,11.10
2023-03-13T22:40:35.222Z,11.20
2023-03-13T22:43:04.534Z,11.10
2023-03-13T22:45:34.034Z,11.20
2023-03-13T22:48:06.120Z,11.10
2023-03-13T22:50:34.074Z,11.10
2023-03-13T22:53:02.050Z,11.10
2023-03-13T22:55:30.258Z,11.20
2023-03-13T22:57:58.109Z,11.20
2023-03-13T23:00:27.550Z,11.20
2023-03-13T23:02:55.735Z,11.40
2023-03-13T23:05:23.621Z,11.40
2023-03-13T23:07:51.744Z,11.40
2023-03-13T23:10:21.674Z,11.50
2023-03-13T23:12:49.511Z,11.50
2023-03-13T23:15:17.359Z,11.60
2023-03-13T23:17:46.573Z,11.60
2023-03-13T23:20:15.938Z,11.70
2023-03-13T23:22:45.596Z,11.70
2023-03-13T23:25:14.645Z,11.70
2023-03-13T23:27:43.043Z,11.70
2023-03-13T23:30:15.080Z,11.70
2023-03-13T23:32:45.162Z,11.60
2023-03-13T23:35:16.833Z,11.60
2023-03-13T23:37:47.535Z,11.60
2023-03-13T23:40:15.932Z,11.60
2023-03-13T23:42:46.395Z,11.60
2023-03-13T23:45:14.386Z,11.60
2023-03-13T23:47:44.029Z,11.60
2023-03-13T23:50:12.661Z,11.60
2023-03-13T23:52:42.837Z,11.60
2023-03-13T23:55:11.266Z,11.50
2023-03-13T23:57:39.573Z,11.50
